Time;durP1;ratioP1;P1;durP2;ratioP2;P2;SDS_P1;SDS_P2;PMS_P1;PMS_P2;Temp;Humidity;BMP_temperature;BMP_pressure;BME280_temperature;BME280_humidity;BME280_pressure;Samples;Min_cycle;Max_cycle;Signal;HPM_P1;HPM_P2
2023/02/20 00:00:17;;;;;;;0.10;0.10;;;;;;;-6.03;78.49;97664.59;5066327;28;20098;-71
2023/02/20 00:02:46;;;;;;;0.13;0.13;;;;;;;-6.08;78.06;97663.66;5063977;28;20051;-71
2023/02/20 00:05:13;;;;;;;0.10;0.10;;;;;;;-6.11;78.21;97670.22;5066708;28;20052;-71
2023/02/20 00:07:39;;;;;;;0.10;0.10;;;;;;;-6.18;78.02;97662.28;5066333;28;20462;-71
2023/02/20 00:10:07;;;;;;;0.10;0.10;;;;;;;-6.21;78.22;97670.72;5068045;28;20036;-69
2023/02/20 00:12:33;;;;;;;0.15;0.15;;;;;;;-6.29;78.71;97663.81;5063967;28;20067;-69
2023/02/20 00:14:59;;;;;;;0.10;0.10;;;;;;;-6.41;78.83;97663.69;5049778;28;20059;-69
2023/02/20 00:17:27;;;;;;;0.20;0.20;;;;;;;-6.40;78.83;97667.19;5066178;28;20131;-69
2023/02/20 00:19:55;;;;;;;0.10;0.10;;;;;;;-6.50;78.82;97665.00;5061542;28;20051;-68
2023/02/20 00:22:25;;;;;;;0.13;0.13;;;;;;;-6.52;78.92;97672.41;5063203;28;20473;-71
2023/02/20 00:24:52;;;;;;;0.10;0.10;;;;;;;-6.64;79.15;97661.63;5048619;28;20048;-69
2023/02/20 00:27:18;;;;;;;0.13;0.13;;;;;;;-6.68;79.53;97660.44;5047639;28;20052;-68
2023/02/20 00:29:45;;;;;;;0.10;0.10;;;;;;;-6.76;79.36;97658.06;5046585;28;20479;-68
2023/02/20 00:32:14;;;;;;;0.10;0.10;;;;;;;-6.81;79.60;97657.88;5066097;28;20050;-69
2023/02/20 00:34:41;;;;;;;0.20;0.20;;;;;;;-6.84;79.75;97653.81;5063435;28;20070;-69
2023/02/20 00:37:09;;;;;;;0.10;0.10;;;;;;;-6.90;79.90;97654.66;5063109;28;20048;-70
2023/02/20 00:39:39;;;;;;;0.10;0.10;;;;;;;-6.87;79.61;97664.84;5065948;28;20647;-69
2023/02/20 00:42:05;;;;;;;0.10;0.10;;;;;;;-6.91;79.71;97661.00;5068295;28;20041;-68
2023/02/20 00:44:31;;;;;;;0.20;0.20;;;;;;;-6.89;79.83;97665.06;5061372;28;20060;-69
2023/02/20 00:46:58;;;;;;;0.10;0.10;;;;;;;-6.91;79.95;97655.69;5064242;28;20057;-69
2023/02/20 00:49:24;;;;;;;0.10;0.10;;;;;;;-6.95;80.20;97654.47;5065458;28;20551;-70
2023/02/20 00:51:51;;;;;;;0.13;0.13;;;;;;;-6.92;80.05;97649.56;5063390;28;20096;-70
2023/02/20 00:54:19;;;;;;;0.20;0.20;;;;;;;-6.93;79.98;97650.59;5049528;28;20040;-69
2023/02/20 00:56:45;;;;;;;0.40;0.20;;;;;;;-6.90;80.25;97650.16;5065104;28;20068;-68
2023/02/20 00:59:12;;;;;;;0.10;0.10;;;;;;;-6.85;80.22;97654.84;5065267;28;20091;-69
2023/02/20 01:01:38;;;;;;;0.10;0.10;;;;;;;-6.84;80.04;97651.16;5062209;28;20131;-69
2023/02/20 01:04:04;;;;;;;0.10;0.10;;;;;;;-6.74;79.97;97659.44;5064636;28;20139;-69
2023/02/20 01:06:30;;;;;;;0.10;0.10;;;;;;;-6.67;79.88;97651.44;5064644;28;20049;-69
2023/02/20 01:08:56;;;;;;;0.20;0.20;;;;;;;-6.62;79.61;97661.41;5068922;28;20044;-70
2023/02/20 01:11:24;;;;;;;0.10;0.10;;;;;;;-6.62;79.68;97656.94;5084718;28;20048;-69
2023/02/20 01:13:52;;;;;;;0.10;0.10;;;;;;;-6.60;79.53;97654.88;5083484;28;20134;-69
2023/02/20 01:16:18;;;;;;;0.10;0.10;;;;;;;-6.53;79.48;97649.50;5083265;28;20184;-70
2023/02/20 01:18:47;;;;;;;0.20;0.20;;;;;;;-6.52;79.26;97652.94;5066603;28;20135;-71
2023/02/20 01:21:13;;;;;;;0.10;0.10;;;;;;;-6.49;79.12;97658.66;5083442;28;20095;-71
2023/02/20 01:23:41;;;;;;;;;;;;;;;-6.47;79.12;97655.81;5087393;28;20067;-71
2023/02/20 01:26:07;;;;;;;0.20;0.20;;;;;;;-6.58;78.90;97657.28;5082714;28;19970;-71
2023/02/20 01:28:34;;;;;;;0.17;0.17;;;;;;;-6.62;78.95;97667.56;5096515;28;20521;-71
2023/02/20 01:31:02;;;;;;;0.10;0.10;;;;;;;-6.55;78.70;97663.00;5070365;28;20051;-69
2023/02/20 01:33:32;;;;;;;0.10;0.10;;;;;;;-6.52;78.53;97664.41;5069093;28;20539;-69
2023/02/20 01:35:58;;;;;;;0.10;0.10;;;;;;;-6.49;78.27;97668.47;5089069;28;20518;-69
2023/02/20 01:38:24;;;;;;;0.10;0.10;;;;;;;-6.39;78.31;97666.16;5105256;28;20521;-69
2023/02/20 01:40:50;;;;;;;0.10;0.10;;;;;;;-6.33;77.67;97667.13;5104421;28;20130;-70
2023/02/20 01:43:17;;;;;;;0.20;0.20;;;;;;;-6.32;77.81;97658.13;5105681;28;20040;-70
2023/02/20 01:45:45;;;;;;;0.10;0.10;;;;;;;-6.16;77.47;97664.75;5087057;28;20047;-69
2023/02/20 01:48:19;;;;;;;0.20;0.20;;;;;;;-6.05;77.48;97668.53;5107314;28;20185;-70
2023/02/20 01:50:51;;;;;;;0.10;0.10;;;;;;;-6.05;76.65;97671.19;5107432;28;20433;-69
2023/02/20 01:53:20;;;;;;;0.10;0.10;;;;;;;-6.05;76.71;97679.19;5107268;28;20047;-69
2023/02/20 01:55:50;;;;;;;0.10;0.10;;;;;;;-6.07;76.70;97673.25;5089934;28;20518;-69
2023/02/20 01:58:20;;;;;;;0.20;0.20;;;;;;;-6.09;76.74;97656.66;5107610;28;20136;-69
2023/02/20 02:00:47;;;;;;;0.10;0.10;;;;;;;-6.00;76.37;97680.13;5088688;28;20076;-68
2023/02/20 02:03:18;;;;;;;0.10;0.10;;;;;;;-6.06;76.59;97672.22;5075358;28;20048;-71
2023/02/20 02:05:53;;;;;;;0.30;0.30;;;;;;;-6.02;76.27;97670.75;5075364;28;20044;-68
2023/02/20 02:08:22;;;;;;;0.20;0.20;;;;;;;-6.04;76.14;97680.81;5068052;28;20048;-69
2023/02/20 02:10:53;;;;;;;0.10;0.10;;;;;;;-6.09;76.26;97675.31;5068752;28;20185;-68
2023/02/20 02:13:19;;;;;;;0.10;0.10;;;;;;;-6.09;75.88;97670.81;5072011;28;20079;-68
2023/02/20 02:15:51;;;;;;;0.10;0.10;;;;;;;-6.15;76.29;97679.69;5055629;28;20048;-68
2023/02/20 02:18:38;;;;;;;0.10;0.10;;;;;;;-6.14;76.24;97676.78;5087232;28;20485;-69
2023/02/20 02:21:43;;;;;;;0.10;0.10;;;;;;;-6.17;76.07;97679.06;5068353;28;20067;-69
2023/02/20 02:24:33;;;;;;;0.10;0.10;;;;;;;-6.20;75.98;97687.47;5073606;28;20055;-69
2023/02/20 02:27:33;;;;;;;0.10;0.10;;;;;;;-6.11;75.95;97680.84;5072301;28;20143;-68
2023/02/20 02:30:32;;;;;;;0.20;0.20;;;;;;;-6.04;75.70;97683.47;5088470;28;20131;-69
2023/02/20 02:33:46;;;;;;;0.10;0.10;;;;;;;-6.07;75.38;97687.38;5029227;28;20056;-69
2023/02/20 02:36:43;;;;;;;0.20;0.20;;;;;;;-6.10;75.25;97681.66;5008804;28;20059;-69
2023/02/20 02:39:20;;;;;;;0.10;0.10;;;;;;;-6.21;75.45;97688.50;5052493;28;20055;-69
2023/02/20 02:41:55;;;;;;;0.10;0.10;;;;;;;-6.16;75.43;97689.50;5068955;28;20044;-70
2023/02/20 02:44:29;;;;;;;0.20;0.20;;;;;;;-6.15;75.48;97691.13;5067549;28;20055;-69
2023/02/20 02:46:58;;;;;;;0.10;0.10;;;;;;;-6.16;75.11;97705.47;5059748;28;20043;-69
2023/02/20 02:49:33;;;;;;;0.17;0.17;;;;;;;-6.18;75.28;97696.88;5090970;28;20043;-69
2023/02/20 02:52:02;;;;;;;0.10;0.10;;;;;;;-6.12;75.52;97703.19;5090632;28;20067;-69
2023/02/20 02:54:29;;;;;;;0.10;0.10;;;;;;;-6.06;75.26;97696.19;5108734;28;20508;-69
2023/02/20 02:57:18;;;;;;;0.10;0.10;;;;;;;-6.10;75.31;97708.25;5104504;28;20256;-69
2023/02/20 02:59:46;;;;;;;0.20;0.20;;;;;;;-6.13;75.03;97709.53;5108186;28;20134;-69
2023/02/20 03:02:16;;;;;;;0.17;0.17;;;;;;;-6.18;75.20;97704.03;5087772;28;20062;-68
2023/02/20 03:04:46;;;;;;;0.10;0.10;;;;;;;-6.18;75.11;97704.03;5088499;28;20047;-69
2023/02/20 03:07:16;;;;;;;0.50;0.10;;;;;;;-6.18;75.17;97701.38;5108108;28;20618;-69
2023/02/20 03:09:47;;;;;;;0.13;0.10;;;;;;;-6.19;75.27;97707.72;5068386;28;20051;-69
2023/02/20 03:12:15;;;;;;;0.10;0.10;;;;;;;-6.21;75.52;97712.47;5052849;28;20075;-69
2023/02/20 03:17:34;;;;;;;0.47;0.20;;;;;;;-6.23;74.88;97718.00;5069130;28;19931;-69
2023/02/20 03:20:07;;;;;;;0.10;0.10;;;;;;;-6.24;74.80;97716.38;5054501;28;20040;-68
2023/02/20 03:22:39;;;;;;;0.10;0.10;;;;;;;-6.29;75.13;97714.38;5080248;28;20036;-69
2023/02/20 03:25:15;;;;;;;0.10;0.10;;;;;;;-6.30;74.79;97709.25;5083552;28;20040;-68
2023/02/20 03:27:48;;;;;;;0.10;0.10;;;;;;;-6.34;74.89;97710.72;5084137;28;20044;-69
2023/02/20 03:30:21;;;;;;;0.13;0.13;;;;;;;-6.32;74.87;97706.00;5082214;28;20131;-68
2023/02/20 03:44:05;;;;;;;0.10;0.10;;;;;;;-6.55;75.06;97699.44;5078050;28;20181;-69
2023/02/20 03:46:35;;;;;;;0.10;0.10;;;;;;;-6.65;74.79;97688.44;5083112;28;20047;-69
2023/02/20 03:49:05;;;;;;;0.17;0.10;;;;;;;-6.87;75.25;97694.06;5105424;28;20104;-71
2023/02/20 03:54:32;;;;;;;0.33;0.10;;;;;;;-7.03;75.74;97704.19;5089493;28;20051;-71
2023/02/20 03:57:04;;;;;;;0.10;0.10;;;;;;;-7.09;76.08;97707.69;5088315;28;20074;-70
2023/02/20 03:59:34;;;;;;;0.10;0.10;;;;;;;-7.24;76.10;97704.50;5072336;28;20514;-70
2023/02/20 04:02:04;;;;;;;0.10;0.10;;;;;;;-7.20;76.16;97719.81;5086959;28;20464;-70
2023/02/20 04:04:36;;;;;;;0.30;0.20;;;;;;;-7.26;76.13;97718.81;5069106;28;20056;-70
2023/02/20 04:07:09;;;;;;;0.10;0.10;;;;;;;-7.21;76.37;97726.16;5051103;28;20410;-70
2023/02/20 04:09:40;;;;;;;0.10;0.10;;;;;;;-7.19;76.22;97710.81;5067036;28;20044;-70
2023/02/20 04:12:13;;;;;;;0.10;0.10;;;;;;;-7.14;76.24;97718.94;5061853;28;20135;-70
2023/02/20 04:14:45;;;;;;;0.10;0.10;;;;;;;-7.15;76.20;97714.66;5055344;28;20040;-71
2023/02/20 04:17:15;;;;;;;0.10;0.10;;;;;;;-7.09;76.42;97707.69;5066264;28;20052;-69
2023/02/20 04:19:41;;;;;;;0.10;0.10;;;;;;;-7.06;76.30;97714.44;5049479;28;20511;-69
2023/02/20 04:22:14;;;;;;;0.10;0.10;;;;;;;-7.08;76.25;97713.84;5077712;28;20044;-69
2023/02/20 04:24:47;;;;;;;0.10;0.10;;;;;;;-7.11;76.06;97725.69;5094126;28;20309;-71
2023/02/20 04:27:14;;;;;;;0.20;0.20;;;;;;;-7.08;76.32;97722.59;5072389;28;20589;-71
2023/02/20 04:29:47;;;;;;;0.20;0.10;;;;;;;-7.05;75.87;97724.03;5074306;28;20156;-70
2023/02/20 04:32:13;;;;;;;0.10;0.10;;;;;;;-6.99;76.08;97718.69;5079105;28;20044;-71
2023/02/20 04:34:40;;;;;;;0.20;0.13;;;;;;;-6.93;75.27;97726.84;5071090;28;20052;-71
2023/02/20 04:37:12;;;;;;;0.03;0.03;;;;;;;-6.85;75.78;97726.59;5085831;28;20122;-70
2023/02/20 04:39:39;;;;;;;0.10;0.10;;;;;;;-6.77;75.80;97733.50;5083805;28;20507;-71
2023/02/20 04:42:07;;;;;;;0.10;0.10;;;;;;;-6.73;75.83;97726.72;5069816;28;20044;-71
2023/02/20 04:44:34;;;;;;;0.10;0.10;;;;;;;-6.62;75.67;97719.91;5082773;28;20130;-69
2023/02/20 04:47:06;;;;;;;0.10;0.10;;;;;;;-6.62;75.28;97720.75;5083665;28;20466;-68
2023/02/20 04:49:33;;;;;;;0.10;0.10;;;;;;;-6.60;74.88;97713.38;5074744;28;20507;-69
2023/02/20 04:52:02;;;;;;;0.10;0.10;;;;;;;-6.64;75.00;97716.66;5046959;28;20044;-69
2023/02/20 04:54:28;;;;;;;0.10;0.10;;;;;;;-6.60;74.96;97704.56;5065288;28;20503;-69
2023/02/20 04:56:55;;;;;;;0.10;0.10;;;;;;;-6.56;74.54;97708.41;4694640;28;10000064;-69
2023/02/20 04:59:24;;;;;;;0.10;0.10;;;;;;;-6.62;74.56;97709.28;5062171;28;20094;-69
2023/02/20 05:01:52;;;;;;;0.10;0.10;;;;;;;-6.57;74.67;97717.41;5044281;28;20052;-69
2023/02/20 05:04:19;;;;;;;0.10;0.10;;;;;;;-6.58;74.74;97721.09;5043639;28;20101;-69
2023/02/20 05:06:48;;;;;;;0.10;0.10;;;;;;;-6.59;74.33;97724.78;5076791;28;20557;-69
2023/02/20 05:09:14;;;;;;;0.10;0.10;;;;;;;-6.62;74.41;97725.22;5084382;28;20052;-68
2023/02/20 05:11:40;;;;;;;0.10;0.10;;;;;;;-6.50;74.31;97731.50;5071723;28;20083;-69
2023/02/20 05:14:07;;;;;;;0.10;0.10;;;;;;;-6.42;74.20;97744.53;5078758;28;20462;-68
2023/02/20 05:16:36;;;;;;;0.20;0.20;;;;;;;-6.46;74.09;97729.22;5062148;28;20040;-69
2023/02/20 05:19:02;;;;;;;0.10;0.10;;;;;;;-6.48;74.14;97729.44;5064588;28;20730;-69
2023/02/20 05:24:13;;;;;;;0.17;0.17;;;;;;;-6.38;73.66;97744.91;5081233;28;20140;-69
2023/02/20 05:26:40;;;;;;;0.10;0.10;;;;;;;-6.30;73.81;97734.03;5088169;28;20048;-68
2023/02/20 05:29:08;;;;;;;0.10;0.10;;;;;;;-6.16;73.58;97742.72;5074555;28;20060;-68
2023/02/20 05:31:36;;;;;;;0.10;0.10;;;;;;;-6.12;73.21;97740.44;5074918;28;20055;-68
2023/02/20 05:34:02;;;;;;;;;;;;;;;-6.07;72.83;97732.59;5087845;28;20044;-71
2023/02/20 05:36:28;;;;;;;0.10;0.10;;;;;;;-6.11;72.90;97742.06;5076396;28;20294;-71
2023/02/20 05:38:54;;;;;;;0.10;0.10;;;;;;;-6.08;72.61;97746.94;5074713;28;20052;-70
2023/02/20 05:41:21;;;;;;;0.20;0.20;;;;;;;-6.10;72.51;97740.19;5083401;28;20046;-70
2023/02/20 05:43:47;;;;;;;0.10;0.10;;;;;;;-6.18;72.61;97742.13;5075840;28;20122;-70
2023/02/20 05:46:13;;;;;;;0.10;0.10;;;;;;;-6.18;72.70;97746.59;5065953;28;20075;-71
2023/02/20 05:48:41;;;;;;;0.10;0.10;;;;;;;-6.17;72.82;97751.72;5067932;28;20044;-71
2023/02/20 05:51:07;;;;;;;0.20;0.20;;;;;;;-6.14;72.59;97756.59;5067330;28;20044;-71
2023/02/20 05:53:33;;;;;;;0.10;0.10;;;;;;;-6.06;72.39;97755.53;5050476;28;20048;-70
2023/02/20 05:56:00;;;;;;;0.10;0.10;;;;;;;-6.06;72.43;97757.38;5049536;28;20059;-71
2023/02/20 05:58:26;;;;;;;0.10;0.10;;;;;;;-5.97;72.48;97758.69;5068922;28;20040;-71
2023/02/20 06:00:52;;;;;;;0.20;0.20;;;;;;;-5.90;72.09;97753.31;5087440;28;20052;-71
2023/02/20 06:03:18;;;;;;;0.10;0.10;;;;;;;-5.93;72.06;97757.25;5085489;28;20155;-69
2023/02/20 06:05:46;;;;;;;0.20;0.20;;;;;;;-5.98;71.67;97747.25;5073457;28;20078;-69
2023/02/20 06:08:13;;;;;;;;;;;;;;;-5.94;71.65;97760.13;5056644;28;20140;-69
2023/02/20 06:10:39;;;;;;;0.10;0.10;;;;;;;-5.93;71.42;97757.25;5059153;28;19924;-68
2023/02/20 06:13:05;;;;;;;0.10;0.10;;;;;;;-5.85;71.46;97756.16;5060460;28;20056;-69
2023/02/20 06:15:31;;;;;;;0.10;0.10;;;;;;;-5.77;71.25;97758.53;5060110;28;20587;-69
2023/02/20 06:17:57;;;;;;;0.20;0.20;;;;;;;-5.79;71.23;97760.59;5059649;28;20052;-69
2023/02/20 06:20:23;;;;;;;0.10;0.10;;;;;;;-5.74;71.30;97763.41;5057963;28;20078;-69
2023/02/20 06:22:51;;;;;;;0.10;0.10;;;;;;;-5.72;71.15;97773.84;5051697;28;20105;-69
2023/02/20 06:25:17;;;;;;;0.10;0.10;;;;;;;-5.77;70.92;97771.03;5076813;28;20048;-69
2023/02/20 06:27:43;;;;;;;0.30;0.20;;;;;;;-5.66;70.91;97774.84;5070887;28;20052;-69
2023/02/20 06:30:10;;;;;;;0.10;0.10;;;;;;;-5.58;70.71;97775.34;5088911;28;20059;-69
2023/02/20 06:32:36;;;;;;;0.10;0.10;;;;;;;-5.51;70.50;97774.47;5090938;28;20138;-69
2023/02/20 06:35:03;;;;;;;0.10;0.10;;;;;;;-5.54;70.57;97775.75;5071191;28;20056;-69
2023/02/20 06:37:29;;;;;;;0.10;0.10;;;;;;;-5.52;70.63;97778.16;5089557;28;20134;-69
2023/02/20 06:39:57;;;;;;;0.20;0.20;;;;;;;-5.44;70.11;97777.91;5110604;28;20039;-68
2023/02/20 06:42:23;;;;;;;;;;;;;;;-5.44;70.18;97775.22;5092855;28;20093;-69
2023/02/20 06:44:49;;;;;;;0.20;0.20;;;;;;;-5.38;69.97;97776.22;5110568;28;19927;-68
2023/02/20 06:47:15;;;;;;;0.20;0.20;;;;;;;-5.36;69.62;97774.94;5054965;28;20146;-69
2023/02/20 06:49:42;;;;;;;0.10;0.10;;;;;;;-5.36;69.67;97777.59;5065956;28;20105;-68
2023/02/20 06:52:09;;;;;;;0.10;0.10;;;;;;;-5.36;69.54;97776.78;5097699;28;20582;-69
2023/02/20 06:54:35;;;;;;;0.20;0.20;;;;;;;-5.41;69.54;97780.91;5094515;28;20540;-69
2023/02/20 06:57:03;;;;;;;0.20;0.20;;;;;;;-5.39;69.66;97779.88;5090051;28;20071;-68
2023/02/20 06:59:29;;;;;;;;;;;;;;;-5.36;69.70;97784.78;5071872;28;20066;-69
2023/02/20 07:01:55;;;;;;;0.20;0.20;;;;;;;-5.31;69.33;97788.44;5055513;28;19928;-69
2023/02/20 07:04:25;;;;;;;0.20;0.20;;;;;;;-5.20;69.00;97778.88;5071793;28;20040;-69
2023/02/20 07:06:51;;;;;;;0.20;0.20;;;;;;;-4.99;68.88;97790.13;5090434;28;20101;-69
2023/02/20 07:09:19;;;;;;;0.20;0.20;;;;;;;-4.89;68.48;97790.41;5071772;28;20047;-69
2023/02/20 07:11:45;;;;;;;0.20;0.20;;;;;;;-4.88;68.06;97777.88;5071178;28;20455;-69
2023/02/20 07:14:13;;;;;;;0.20;0.20;;;;;;;-4.87;67.72;97783.00;5073092;28;20047;-69
2023/02/20 07:16:39;;;;;;;0.37;0.20;;;;;;;-4.96;67.86;97789.66;5089925;28;20048;-69
2023/02/20 07:19:05;;;;;;;0.10;0.10;;;;;;;-4.90;67.79;97782.63;5087980;28;20044;-69
2023/02/20 07:21:32;;;;;;;0.20;0.20;;;;;;;-4.82;67.90;97777.00;5072030;28;20135;-69
2023/02/20 07:23:58;;;;;;;0.10;0.10;;;;;;;-4.79;67.51;97792.56;5054973;28;20131;-69
2023/02/20 07:26:26;;;;;;;0.20;0.20;;;;;;;-4.73;67.48;97788.19;5076152;28;20086;-69
2023/02/20 07:28:54;;;;;;;0.10;0.10;;;;;;;-4.60;67.41;97782.69;5072647;28;20105;-69
2023/02/20 07:31:21;;;;;;;0.15;0.15;;;;;;;-4.50;66.75;97798.13;5059029;28;20541;-69
2023/02/20 07:33:47;;;;;;;0.20;0.20;;;;;;;-4.45;66.18;97787.59;5103790;28;20104;-69
2023/02/20 07:36:14;;;;;;;0.17;0.17;;;;;;;-4.42;65.98;97797.00;5061750;28;20079;-69
2023/02/20 07:38:40;;;;;;;0.13;0.13;;;;;;;-4.44;66.11;97791.88;5106842;28;20475;-69
2023/02/20 07:41:06;;;;;;;0.20;0.20;;;;;;;-4.39;65.68;97788.53;5086277;28;20474;-69
2023/02/20 07:43:33;;;;;;;0.10;0.10;;;;;;;-4.35;65.49;97778.22;5086943;28;20522;-69
2023/02/20 07:45:59;;;;;;;0.20;0.20;;;;;;;-4.15;65.26;97786.75;5090187;28;20052;-69
2023/02/20 07:48:27;;;;;;;0.30;0.30;;;;;;;-4.11;64.82;97797.78;5067239;28;20083;-69
2023/02/20 07:50:53;;;;;;;0.20;0.20;;;;;;;-4.03;64.58;97792.13;5090188;28;20097;-69
2023/02/20 07:53:20;;;;;;;0.20;0.20;;;;;;;-3.86;64.05;97794.13;5089330;28;20064;-69
2023/02/20 07:55:46;;;;;;;0.20;0.20;;;;;;;-3.72;63.59;97800.06;5088442;28;20044;-69
2023/02/20 07:58:13;;;;;;;0.30;0.30;;;;;;;-3.56;63.55;97803.91;5070608;28;20075;-68
2023/02/20 08:00:39;;;;;;;0.20;0.20;;;;;;;-3.52;62.66;97794.38;5068938;28;20048;-70
2023/02/20 08:03:05;;;;;;;0.20;0.20;;;;;;;-3.49;62.74;97799.28;5073119;28;20121;-69
2023/02/20 08:05:32;;;;;;;0.20;0.20;;;;;;;-3.60;62.73;97811.56;5086993;28;20056;-70
2023/02/20 08:07:59;;;;;;;0.20;0.20;;;;;;;-3.52;62.82;97812.28;5071511;28;20051;-69
2023/02/20 08:10:26;;;;;;;0.20;0.20;;;;;;;-3.49;62.27;97809.13;5086517;28;20494;-69
2023/02/20 08:12:53;;;;;;;0.20;0.20;;;;;;;-3.45;62.26;97815.63;5094655;28;20056;-69
2023/02/20 08:15:21;;;;;;;0.20;0.20;;;;;;;-3.48;62.31;97813.44;5076101;28;20058;-69
2023/02/20 08:17:47;;;;;;;0.20;0.20;;;;;;;-3.39;62.04;97814.72;5085451;28;20062;-69
2023/02/20 08:20:15;;;;;;;0.20;0.20;;;;;;;-3.25;61.75;97817.97;5087085;28;20044;-69
2023/02/20 08:22:42;;;;;;;0.30;0.30;;;;;;;-3.08;61.42;97809.22;5072582;28;20135;-69
2023/02/20 08:25:09;;;;;;;0.25;0.25;;;;;;;-3.21;60.62;97824.47;5086192;28;20084;-68
2023/02/20 08:27:37;;;;;;;0.20;0.20;;;;;;;-3.45;60.72;97818.31;5087966;28;20058;-69
2023/02/20 08:30:04;;;;;;;0.10;0.10;;;;;;;-3.61;61.32;97817.16;5106620;28;20396;-69
2023/02/20 08:32:32;;;;;;;0.20;0.20;;;;;;;-3.75;62.08;97820.03;5103578;28;20096;-69
2023/02/20 08:34:58;;;;;;;0.20;0.20;;;;;;;-3.75;62.35;97827.22;5068510;28;20044;-69
2023/02/20 08:37:24;;;;;;;0.10;0.10;;;;;;;-3.58;62.31;97814.84;5086026;28;20043;-69
2023/02/20 08:39:52;;;;;;;0.20;0.20;;;;;;;-3.49;62.05;97819.81;5086936;28;20048;-69
2023/02/20 08:42:18;;;;;;;0.20;0.20;;;;;;;-3.48;62.14;97822.28;5086160;28;20129;-69
2023/02/20 08:44:44;;;;;;;0.20;0.20;;;;;;;-3.53;61.79;97835.50;5085914;28;20044;-69
2023/02/20 08:47:10;;;;;;;0.20;0.20;;;;;;;-3.53;61.84;97827.47;5085984;28;20044;-69
2023/02/20 08:49:37;;;;;;;0.20;0.20;;;;;;;-3.46;61.89;97835.38;5071546;28;20081;-69
2023/02/20 08:52:04;;;;;;;0.20;0.20;;;;;;;-3.49;61.66;97825.16;5086674;28;20056;-69
2023/02/20 08:54:30;;;;;;;;;;;;;;;-3.46;61.39;97836.22;5069804;28;20036;-69
2023/02/20 08:56:58;;;;;;;0.20;0.20;;;;;;;-3.45;61.36;97834.34;5074321;28;19961;-69
2023/02/20 08:59:24;;;;;;;0.30;0.30;;;;;;;-3.38;60.59;97823.53;5087578;28;20055;-69
2023/02/20 09:01:50;;;;;;;0.20;0.20;;;;;;;-3.30;60.34;97832.03;5085929;28;20077;-69
2023/02/20 09:04:18;;;;;;;0.20;0.20;;;;;;;-3.19;60.34;97835.75;5085068;28;20040;-69
2023/02/20 09:06:45;;;;;;;0.20;0.20;;;;;;;-3.13;60.21;97836.66;5072153;28;20036;-69
2023/02/20 09:09:11;;;;;;;0.20;0.20;;;;;;;-3.10;60.05;97836.22;5084458;28;20044;-69
2023/02/20 09:11:37;;;;;;;0.20;0.20;;;;;;;-3.16;59.94;97821.91;5085299;28;20072;-69
2023/02/20 09:14:04;;;;;;;0.30;0.30;;;;;;;-3.09;60.06;97821.81;5071916;28;20458;-69
2023/02/20 09:16:30;;;;;;;0.30;0.30;;;;;;;-2.96;59.70;97819.94;5082372;28;20055;-69
2023/02/20 09:18:57;;;;;;;0.30;0.30;;;;;;;-2.78;59.31;97825.13;5083404;28;20063;-69
2023/02/20 09:21:23;;;;;;;0.30;0.30;;;;;;;-2.63;58.79;97824.59;5068312;28;20055;-69
2023/02/20 09:23:49;;;;;;;0.30;0.30;;;;;;;-2.44;58.25;97827.09;5102305;28;20048;-71
2023/02/20 09:26:15;;;;;;;0.20;0.20;;;;;;;-2.31;58.13;97826.81;5102315;28;20051;-72
2023/02/20 09:28:41;;;;;;;0.30;0.30;;;;;;;-2.07;57.56;97821.38;5078756;28;21243;-71
2023/02/20 09:31:09;;;;;;;0.30;0.30;;;;;;;-1.94;56.93;97830.97;5079372;28;20050;-71
2023/02/20 09:33:35;;;;;;;0.30;0.30;;;;;;;-2.01;56.62;97831.13;5078210;28;20051;-71
2023/02/20 09:36:01;;;;;;;0.20;0.20;;;;;;;-2.11;56.86;97832.81;5062893;28;20058;-71
2023/02/20 09:38:28;;;;;;;0.20;0.20;;;;;;;-2.16;57.23;97831.66;5059272;28;20036;-71
2023/02/20 09:40:57;;;;;;;0.95;0.38;;;;;;;-2.35;57.40;97838.25;5071342;28;20051;-71
2023/02/20 09:43:36;;;;;;;0.20;0.20;;;;;;;-2.51;57.96;97834.47;5088793;28;20059;-70
2023/02/20 09:46:09;;;;;;;0.28;0.28;;;;;;;-2.67;58.02;97836.84;5050258;28;20051;-71
2023/02/20 09:48:51;;;;;;;0.20;0.20;;;;;;;-2.89;58.46;97823.28;5066366;28;20050;-71
2023/02/20 09:51:21;;;;;;;0.20;0.20;;;;;;;-2.91;59.06;97839.53;5084476;28;20048;-70
2023/02/20 09:53:54;;;;;;;0.22;0.22;;;;;;;-2.91;59.21;97838.75;5086052;28;20048;-71
2023/02/20 09:56:22;;;;;;;0.20;0.20;;;;;;;-2.98;58.89;97828.19;5070804;28;20054;-71
2023/02/20 09:58:53;;;;;;;0.20;0.20;;;;;;;-3.05;58.69;97822.94;5084288;28;20138;-70
2023/02/20 10:01:22;;;;;;;0.30;0.30;;;;;;;-2.99;58.83;97821.19;5052232;28;20048;-70
2023/02/20 10:03:55;;;;;;;0.20;0.20;;;;;;;-2.92;58.65;97823.75;5068689;28;20047;-71
2023/02/20 10:06:25;;;;;;;0.20;0.20;;;;;;;-2.89;58.17;97826.78;5090402;28;20201;-70
2023/02/20 10:08:52;;;;;;;0.20;0.20;;;;;;;-2.92;58.05;97821.88;5069000;28;20051;-70
2023/02/20 10:11:28;;;;;;;0.30;0.30;;;;;;;-2.94;57.97;97832.00;5072677;28;20052;-70
2023/02/20 10:14:06;;;;;;;0.20;0.20;;;;;;;-3.13;58.25;97824.13;5090213;28;20069;-70
2023/02/20 10:16:41;;;;;;;0.20;0.20;;;;;;;-3.08;58.58;97825.28;5090160;28;20154;-71
2023/02/20 10:19:21;;;;;;;0.20;0.20;;;;;;;-3.17;58.98;97833.66;5088418;28;20052;-71
2023/02/20 10:21:58;;;;;;;0.65;0.30;;;;;;;-3.20;59.42;97830.63;5057000;28;20465;-71
2023/02/20 10:24:41;;;;;;;0.20;0.20;;;;;;;-3.10;59.56;97819.34;5094138;28;20130;-71
2023/02/20 10:27:20;;;;;;;0.53;0.30;;;;;;;-3.14;59.51;97822.50;5088651;28;20048;-71
2023/02/20 10:29:47;;;;;;;0.20;0.20;;;;;;;-3.17;59.88;97825.66;5086645;28;20108;-71
2023/02/20 10:32:20;;;;;;;0.30;0.30;;;;;;;-3.11;60.07;97831.09;5086462;28;20044;-71
2023/02/20 10:34:56;;;;;;;0.20;0.20;;;;;;;-3.01;59.79;97831.31;5075142;28;20201;-71
2023/02/20 10:37:26;;;;;;;0.30;0.30;;;;;;;-2.86;59.93;97825.47;5092652;28;20044;-71
2023/02/20 10:39:57;;;;;;;0.20;0.20;;;;;;;-2.58;59.88;97818.53;5073547;28;20072;-71
2023/02/20 10:42:30;;;;;;;0.20;0.20;;;;;;;-2.57;58.77;97793.41;5087430;28;20047;-71
2023/02/20 10:45:02;;;;;;;0.37;0.20;;;;;;;-2.41;59.06;97821.28;5087081;28;20478;-71
2023/02/20 10:47:36;;;;;;;0.20;0.20;;;;;;;-2.48;58.89;97820.59;5090522;28;20412;-71
2023/02/20 10:50:08;;;;;;;0.20;0.20;;;;;;;-2.63;59.52;97821.13;5087989;28;20048;-71
2023/02/20 10:52:41;;;;;;;0.20;0.20;;;;;;;-2.67;59.46;97823.47;5087482;28;20152;-70
2023/02/20 10:55:12;;;;;;;0.25;0.25;;;;;;;-2.79;59.79;97818.16;5073076;28;20072;-70
2023/02/20 10:57:43;;;;;;;0.22;0.22;;;;;;;-2.98;59.63;97822.81;5087186;28;20043;-71
2023/02/20 11:00:15;;;;;;;0.20;0.20;;;;;;;-3.11;59.86;97818.56;5087945;28;20048;-70
2023/02/20 11:02:47;;;;;;;0.20;0.20;;;;;;;-3.24;60.25;97824.13;5086313;28;20044;-70
2023/02/20 11:05:18;;;;;;;0.20;0.20;;;;;;;-3.42;60.36;97825.88;5084578;28;20052;-71
2023/02/20 11:07:45;;;;;;;0.20;0.20;;;;;;;-3.47;60.55;97817.72;5072659;28;20461;-71
2023/02/20 11:10:11;;;;;;;0.20;0.20;;;;;;;-3.52;60.83;97821.09;5053770;28;20051;-70
2023/02/20 11:12:43;;;;;;;0.20;0.20;;;;;;;-3.54;60.89;97823.19;5087691;28;20051;-70
2023/02/20 11:15:12;;;;;;;0.20;0.20;;;;;;;-3.66;61.09;97815.16;5086801;28;20109;-70
2023/02/20 11:17:40;;;;;;;0.20;0.20;;;;;;;-3.62;61.24;97819.00;5088579;28;20044;-70
2023/02/20 11:20:40;;;;;;;0.20;0.20;;;;;;;-3.67;61.41;97807.38;5058987;28;20052;-70
2023/02/20 11:23:07;;;;;;;0.20;0.20;;;;;;;-3.57;61.04;97819.13;5071254;28;20054;-70
2023/02/20 11:25:34;;;;;;;0.20;0.20;;;;;;;-3.53;60.79;97814.13;5087420;28;20048;-70
2023/02/20 11:28:17;;;;;;;0.22;0.22;;;;;;;-3.50;60.81;97816.34;5068698;28;20044;-70
2023/02/20 11:30:45;;;;;;;0.20;0.20;;;;;;;-3.68;60.44;97813.75;5074229;28;20040;-70
2023/02/20 11:33:16;;;;;;;0.20;0.20;;;;;;;-3.77;61.20;97816.78;5088900;28;20051;-70
2023/02/20 11:35:45;;;;;;;0.17;0.17;;;;;;;-3.85;60.77;97817.09;5073005;28;20492;-71
2023/02/20 11:38:34;;;;;;;0.20;0.20;;;;;;;-3.89;60.81;97821.28;5056983;28;20047;-70
2023/02/20 11:41:11;;;;;;;0.20;0.20;;;;;;;-3.90;60.62;97825.81;5075392;28;20434;-70
2023/02/20 11:43:39;;;;;;;0.10;0.10;;;;;;;-3.95;60.86;97828.34;5072435;28;20097;-70
2023/02/20 11:46:12;;;;;;;0.20;0.20;;;;;;;-4.00;61.03;97836.25;5073874;28;20511;-71
2023/02/20 11:48:58;;;;;;;0.10;0.10;;;;;;;-4.05;61.13;97838.78;5072868;28;20217;-69
2023/02/20 11:51:34;;;;;;;0.10;0.10;;;;;;;-4.17;60.89;97833.41;5069086;28;20048;-68
2023/02/20 11:54:09;;;;;;;0.20;0.20;;;;;;;-4.23;61.48;97842.31;5071059;28;20059;-70
2023/02/20 11:56:36;;;;;;;0.10;0.10;;;;;;;-4.24;61.70;97843.38;5070867;28;20101;-68
2023/02/20 11:59:28;;;;;;;0.20;0.20;;;;;;;-4.18;61.78;97845.94;5055794;28;20105;-68
2023/02/20 12:01:55;;;;;;;0.20;0.20;;;;;;;-4.15;61.79;97850.00;5089453;28;20085;-68
2023/02/20 12:04:23;;;;;;;0.30;0.30;;;;;;;-4.19;61.92;97843.50;5054413;28;20422;-68